createdAt,value
2019-02-15T00:01:46.833Z,100171.89
2019-02-15T00:04:17.493Z,100180.31
2019-02-15T00:06:47.964Z,100180.86
2019-02-15T00:09:18.189Z,100178.28
2019-02-15T00:11:48.760Z,100176.47
2019-02-15T00:14:19.813Z,100176.47
2019-02-15T00:16:50.412Z,100180.06
2019-02-15T00:19:30.690Z,100184.52
2019-02-15T00:22:01.226Z,100184.18
2019-02-15T00:24:31.831Z,100185.55
2019-02-15T00:27:02.434Z,100190.77
2019-02-15T00:29:32.642Z,100183.20
2019-02-15T00:32:03.253Z,100188.01
2019-02-15T00:34:33.499Z,100195.64
2019-02-15T00:37:04.202Z,100193.34
2019-02-15T00:39:35.218Z,100191.90
2019-02-15T00:42:06.053Z,100194.55
2019-02-15T00:44:36.784Z,100199.81
2019-02-15T00:47:25.105Z,100194.66
2019-02-15T00:50:27.032Z,100195.34
2019-02-15T00:53:15.477Z,100195.28
2019-02-15T00:56:04.886Z,100195.06
2019-02-15T00:58:54.074Z,100192.84
2019-02-15T01:01:49.173Z,100193.06
2019-02-15T01:04:51.136Z,100196.70
2019-02-15T01:07:49.298Z,100196.70
2019-02-15T01:10:34.233Z,100195.00
2019-02-15T01:13:08.564Z,100200.87
2019-02-15T01:15:39.287Z,100195.71
2019-02-15T01:18:09.595Z,100199.05
2019-02-15T01:20:40.145Z,100196.02
2019-02-15T01:23:10.475Z,100190.36
2019-02-15T01:25:45.989Z,100197.45
2019-02-15T01:28:22.897Z,100188.34
2019-02-15T01:31:13.492Z,100187.77
2019-02-15T01:34:06.557Z,100187.77
2019-02-15T01:37:02.377Z,100183.51
2019-02-15T01:39:53.585Z,100177.89
2019-02-15T01:42:42.143Z,100179.66
2019-02-15T01:45:17.375Z,100182.33
2019-02-15T01:47:49.388Z,100179.33
2019-02-15T01:50:19.573Z,100182.01
2019-02-15T01:52:49.870Z,100177.70
2019-02-15T01:55:20.793Z,100173.39
2019-02-15T01:57:51.666Z,100174.30
2019-02-15T02:00:24.015Z,100172.16
2019-02-15T02:02:54.655Z,100172.20
2019-02-15T02:05:25.275Z,100168.71
2019-02-15T02:07:55.616Z,100164.36
2019-02-15T02:10:27.385Z,100167.44
2019-02-15T02:12:58.334Z,100159.63
2019-02-15T02:15:28.957Z,100160.05
2019-02-15T02:17:59.582Z,100153.11
2019-02-15T02:20:30.902Z,100156.26
2019-02-15T02:23:01.846Z,100152.36
2019-02-15T02:25:32.499Z,100155.84
2019-02-15T02:28:02.718Z,100151.98
2019-02-15T02:30:33.275Z,100148.04
2019-02-15T02:33:03.574Z,100143.27
2019-02-15T02:35:33.853Z,100140.65
2019-02-15T02:38:04.171Z,100145.03
2019-02-15T02:40:34.730Z,100135.44
2019-02-15T02:43:04.969Z,100128.01
2019-02-15T02:45:35.517Z,100124.07
2019-02-15T02:48:06.146Z,100133.26
2019-02-15T02:50:36.791Z,100125.34
2019-02-15T02:53:07.517Z,100124.07
2019-02-15T02:55:39.274Z,100125.87
2019-02-15T02:58:09.894Z,100129.80
2019-02-15T03:00:40.157Z,100124.97
2019-02-15T03:03:10.950Z,100126.73
2019-02-15T03:05:41.881Z,100121.41
2019-02-15T03:08:12.225Z,100123.58
2019-02-15T03:10:42.498Z,100121.34
2019-02-15T03:13:13.083Z,100123.17
2019-02-15T03:15:43.342Z,100124.59
2019-02-15T03:19:37.298Z,100122.09
2019-02-15T03:22:08.468Z,100124.34
2019-02-15T03:24:39.375Z,100129.62
2019-02-15T03:27:10.027Z,100126.58
2019-02-15T03:29:40.309Z,100122.19
2019-02-15T03:32:10.591Z,100124.84
2019-02-15T03:34:41.186Z,100123.95
2019-02-15T03:37:33.525Z,100125.29
2019-02-15T03:40:08.668Z,100115.30
2019-02-15T03:42:38.927Z,100115.30
2019-02-15T03:45:09.522Z,100120.52
2019-02-15T03:47:40.302Z,100121.83
2019-02-15T03:50:12.004Z,100128.84
2019-02-15T03:52:42.646Z,100117.45
2019-02-15T03:55:12.963Z,100121.80
2019-02-15T03:57:43.503Z,100120.46
2019-02-15T04:00:14.549Z,100118.64
2019-02-15T04:02:45.177Z,100114.70
2019-02-15T04:05:16.831Z,100120.37
2019-02-15T04:07:47.769Z,100122.93
2019-02-15T04:10:18.397Z,100118.98
2019-02-15T04:12:49.029Z,100126.34
2019-02-15T04:15:19.309Z,100127.31
2019-02-15T04:17:49.538Z,100131.63
2019-02-15T04:20:20.106Z,100133.39
2019-02-15T04:22:50.738Z,100135.64
2019-02-15T04:25:21.371Z,100129.97
2019-02-15T04:27:52.106Z,100130.38
2019-02-15T04:30:22.749Z,100127.38
2019-02-15T04:32:53.743Z,100129.61
2019-02-15T04:35:25.016Z,100127.83
2019-02-15T04:37:55.674Z,100130.73
2019-02-15T04:40:25.936Z,100135.92
2019-02-15T04:42:56.472Z,100129.17
2019-02-15T04:45:26.794Z,100124.82
2019-02-15T04:47:57.365Z,100132.77
2019-02-15T04:50:28.700Z,100131.94
2019-02-15T04:52:59.352Z,100129.31
2019-02-15T04:55:30.380Z,100119.08
2019-02-15T04:58:00.918Z,100120.47
2019-02-15T05:00:31.185Z,100121.45
2019-02-15T05:03:01.781Z,100130.22
2019-02-15T05:05:32.092Z,100125.87
2019-02-15T05:08:02.966Z,100132.50
2019-02-15T05:10:33.216Z,100124.69
2019-02-15T05:13:03.446Z,100127.41
2019-02-15T05:15:34.524Z,100120.08
2019-02-15T05:18:04.825Z,100120.48
2019-02-15T05:20:36.097Z,100125.37
2019-02-15T05:23:06.693Z,100120.55
2019-02-15T05:25:37.014Z,100120.97
2019-02-15T05:28:09.006Z,100120.99
2019-02-15T05:30:39.948Z,100125.44
2019-02-15T05:33:10.495Z,100125.46
2019-02-15T05:35:42.237Z,100122.86
2019-02-15T05:38:13.174Z,100116.78
2019-02-15T05:40:43.832Z,100117.64
2019-02-15T05:43:14.450Z,100115.88
2019-02-15T05:45:46.821Z,100113.73
2019-02-15T05:48:18.162Z,100119.45
2019-02-15T05:50:48.794Z,100116.38
2019-02-15T05:53:19.060Z,100117.27
2019-02-15T05:55:49.319Z,100116.41
2019-02-15T05:58:19.596Z,100120.34
2019-02-15T06:00:50.098Z,100125.53
2019-02-15T06:03:20.354Z,100122.91
2019-02-15T06:05:50.902Z,100124.67
2019-02-15T06:08:21.131Z,100126.42
2019-02-15T06:10:52.786Z,100130.80
2019-02-15T06:13:23.740Z,100125.09
2019-02-15T06:15:54.405Z,100125.11
2019-02-15T06:18:25.336Z,100128.63
2019-02-15T06:20:55.918Z,100128.62
2019-02-15T06:23:26.157Z,100130.35
2019-02-15T06:25:56.409Z,100128.17
2019-02-15T06:28:26.691Z,100129.02
2019-02-15T06:30:57.267Z,100127.66
2019-02-15T06:33:27.646Z,100131.13
2019-02-15T06:35:57.890Z,100128.97
2019-02-15T06:38:34.739Z,100132.91
2019-02-15T06:41:01.821Z,100131.96
2019-02-15T06:43:32.473Z,100139.72
2019-02-15T06:46:02.775Z,100140.55
2019-02-15T06:48:33.670Z,100141.36
2019-02-15T06:51:03.895Z,100150.96
2019-02-15T06:53:34.838Z,100157.94
2019-02-15T06:56:05.127Z,100153.97
2019-02-15T06:58:45.482Z,100151.34
2019-02-15T07:01:22.136Z,100156.59
2019-02-15T07:04:17.148Z,100159.06
2019-02-15T07:06:48.104Z,100157.64
2019-02-15T07:09:18.390Z,100157.64
2019-02-15T07:11:48.628Z,100167.55
2019-02-15T07:14:20.887Z,100163.08
2019-02-15T07:16:51.651Z,100159.55
2019-02-15T07:19:21.904Z,100160.42
2019-02-15T07:21:52.519Z,100155.53
2019-02-15T07:24:22.799Z,100160.25
2019-02-15T07:26:53.123Z,100162.02
2019-02-15T07:29:23.631Z,100156.31
2019-02-15T07:31:54.185Z,100155.81
2019-02-15T07:34:24.712Z,100156.59
2019-02-15T07:36:55.270Z,100158.22
2019-02-15T07:39:25.829Z,100158.13
2019-02-15T07:41:56.451Z,100156.22
2019-02-15T07:44:27.377Z,100154.30
2019-02-15T07:46:58.006Z,100158.94
2019-02-15T07:49:28.299Z,100158.28
2019-02-15T07:51:59.545Z,100162.80
2019-02-15T07:54:29.708Z,100150.79
2019-02-15T07:57:00.324Z,100144.23
2019-02-15T07:59:31.265Z,100141.45
2019-02-15T08:02:02.185Z,100142.34
2019-02-15T08:04:32.601Z,100136.11
2019-02-15T08:07:02.862Z,100135.50
2019-02-15T08:09:33.487Z,100135.98
2019-02-15T08:12:04.117Z,100138.06
2019-02-15T08:14:34.715Z,100139.14
2019-02-15T08:17:04.933Z,100141.03
2019-02-15T08:19:35.500Z,100130.25
2019-02-15T08:22:05.782Z,100131.77
2019-02-15T08:24:36.256Z,100127.80
2019-02-15T08:27:06.889Z,100131.06
2019-02-15T08:29:37.626Z,100125.12
2019-02-15T08:32:07.871Z,100125.98
2019-02-15T08:34:38.151Z,100122.65
2019-02-15T08:37:08.715Z,100121.82
2019-02-15T08:39:39.389Z,100126.17
2019-02-15T08:42:09.691Z,100124.64
2019-02-15T08:44:40.593Z,100120.89
2019-02-15T08:47:10.900Z,100117.86
2019-02-15T08:49:41.398Z,100115.45
2019-02-15T08:52:11.601Z,100125.88
2019-02-15T08:54:42.321Z,100119.59
2019-02-15T08:57:12.568Z,100114.62
2019-02-15T08:59:43.662Z,100117.36
2019-02-15T09:02:22.908Z,100116.30
2019-02-15T09:04:53.571Z,100117.41
2019-02-15T09:07:23.846Z,100115.58
2019-02-15T09:09:54.453Z,100121.77
2019-02-15T09:12:24.757Z,100117.02
2019-02-15T09:14:55.045Z,100113.83
2019-02-15T09:17:27.280Z,100115.97
2019-02-15T09:19:57.639Z,100105.03
2019-02-15T09:22:28.264Z,100103.81
2019-02-15T09:24:58.791Z,100095.27
2019-02-15T09:27:37.627Z,100098.73
2019-02-15T09:30:10.193Z,100104.98
2019-02-15T09:32:40.942Z,100110.11
2019-02-15T09:35:12.078Z,100107.21
2019-02-15T09:37:42.652Z,100102.27
2019-02-15T09:40:12.895Z,100106.12
2019-02-15T09:42:43.212Z,100107.05
2019-02-15T09:45:14.653Z,100099.23
2019-02-15T09:47:47.023Z,100098.33
2019-02-15T09:50:17.603Z,100094.30
2019-02-15T09:52:48.747Z,100098.91
2019-02-15T09:55:19.450Z,100097.59
2019-02-15T09:57:49.625Z,100095.75
2019-02-15T10:00:20.546Z,100093.16
2019-02-15T10:02:51.071Z,100097.05
2019-02-15T10:05:21.583Z,100100.20
2019-02-15T10:07:51.789Z,100097.14
2019-02-15T10:10:22.023Z,100100.89
2019-02-15T10:12:52.641Z,100089.66
2019-02-15T10:15:23.212Z,100091.36
2019-02-15T10:17:53.459Z,100090.05
2019-02-15T10:20:24.367Z,100086.45
2019-02-15T10:22:55.084Z,100084.44
2019-02-15T10:25:26.564Z,100084.34
2019-02-15T10:27:56.815Z,100089.30
2019-02-15T10:30:27.087Z,100086.61
2019-02-15T10:32:57.935Z,100088.02
2019-02-15T10:35:28.510Z,100081.25
2019-02-15T10:37:59.085Z,100076.89
2019-02-15T10:40:29.372Z,100077.11
2019-02-15T10:42:59.695Z,100073.59
2019-02-15T10:45:30.584Z,100069.91
2019-02-15T10:48:00.841Z,100068.20
2019-02-15T10:50:31.363Z,100062.12
2019-02-15T10:53:02.077Z,100056.80
2019-02-15T10:55:32.285Z,100052.94
2019-02-15T10:58:02.548Z,100050.78
2019-02-15T11:00:33.461Z,100052.14
2019-02-15T11:03:03.642Z,100041.55
2019-02-15T11:05:34.410Z,100046.23
2019-02-15T11:08:04.689Z,100040.63
2019-02-15T11:10:35.265Z,100041.05
2019-02-15T11:13:05.899Z,100034.55
2019-02-15T11:15:36.515Z,100028.64
2019-02-15T11:18:06.791Z,100032.08
2019-02-15T11:20:37.385Z,100031.38
2019-02-15T11:23:07.640Z,100024.80
2019-02-15T11:25:37.838Z,100017.29
2019-02-15T11:28:08.138Z,100017.29
2019-02-15T11:30:38.689Z,100017.75
2019-02-15T11:33:09.406Z,100025.62
2019-02-15T11:35:39.664Z,100008.84
2019-02-15T11:38:10.169Z,100004.75
2019-02-15T11:40:41.575Z,100009.84
2019-02-15T11:43:12.462Z,100002.92
2019-02-15T11:45:42.854Z,99999.89
2019-02-15T11:48:13.481Z,99999.74
2019-02-15T11:50:43.711Z,99991.70
2019-02-15T11:53:14.071Z,99995.14
2019-02-15T11:55:45.824Z,99995.31
2019-02-15T11:58:16.869Z,99990.71
2019-02-15T12:00:47.502Z,99987.72
2019-02-15T12:03:18.128Z,99988.63
2019-02-15T12:05:48.770Z,99976.70
2019-02-15T12:08:19.362Z,99980.42
2019-02-15T12:10:50.316Z,99970.11
2019-02-15T12:13:20.937Z,99967.75
2019-02-15T12:15:51.446Z,99963.97
2019-02-15T12:18:22.331Z,99955.36
2019-02-15T12:20:52.958Z,99953.39
2019-02-15T12:23:23.133Z,99952.00
2019-02-15T12:25:53.400Z,99946.16
2019-02-15T12:28:23.897Z,99942.78
2019-02-15T12:30:55.290Z,99948.27
2019-02-15T12:33:25.919Z,99944.90
2019-02-15T12:35:56.573Z,99940.47
2019-02-15T12:38:26.756Z,99937.83
2019-02-15T12:40:57.301Z,99924.69
2019-02-15T12:43:27.907Z,99940.84
2019-02-15T12:45:58.469Z,99930.06
2019-02-15T12:48:29.302Z,99935.11
2019-02-15T12:50:59.573Z,99924.13
2019-02-15T12:53:30.159Z,99927.57
2019-02-15T12:56:00.484Z,99919.10
2019-02-15T12:58:31.109Z,99921.57
2019-02-15T13:01:01.638Z,99913.84
2019-02-15T13:03:32.253Z,99904.95
2019-02-15T13:06:02.551Z,99905.53
2019-02-15T13:08:33.431Z,99910.22
2019-02-15T13:11:03.687Z,99906.27
2019-02-15T13:13:34.552Z,99902.56
2019-02-15T13:16:05.161Z,99897.17
2019-02-15T13:18:35.755Z,99895.96
2019-02-15T13:21:06.282Z,99890.88
2019-02-15T13:23:36.593Z,99888.22
2019-02-15T13:26:08.873Z,99886.41
2019-02-15T13:28:39.870Z,99883.70
2019-02-15T13:31:10.891Z,99880.73
2019-02-15T13:33:41.251Z,99878.70
2019-02-15T13:36:11.780Z,99878.05
2019-02-15T13:38:42.347Z,99877.45
2019-02-15T13:41:12.599Z,99885.78
2019-02-15T13:43:43.325Z,99878.52
2019-02-15T13:46:14.051Z,99876.81
2019-02-15T13:48:44.739Z,99874.77
2019-02-15T13:51:14.922Z,99862.28
2019-02-15T13:53:45.289Z,99862.59
2019-02-15T13:56:15.476Z,99864.97
2019-02-15T13:58:45.751Z,99866.30
2019-02-15T14:01:16.020Z,99858.70
2019-02-15T14:03:46.400Z,99856.41
2019-02-15T14:06:16.698Z,99855.73
2019-02-15T14:08:47.271Z,99852.88
2019-02-15T14:11:17.902Z,99849.14
2019-02-15T14:13:48.998Z,99845.54
2019-02-15T14:16:19.572Z,99845.85
2019-02-15T14:18:49.840Z,99844.91
2019-02-15T14:21:20.734Z,99839.92
2019-02-15T14:23:51.737Z,99840.41
2019-02-15T14:26:22.686Z,99832.47
2019-02-15T14:28:52.888Z,99837.09
2019-02-15T14:31:23.775Z,99836.32
2019-02-15T14:33:54.311Z,99832.80
2019-02-15T14:36:24.471Z,99828.06
2019-02-15T14:38:55.465Z,99840.39
2019-02-15T14:41:26.210Z,99831.13
2019-02-15T14:43:56.523Z,99832.64
2019-02-15T14:46:26.780Z,99834.56
2019-02-15T14:48:58.004Z,99831.09
2019-02-15T14:51:28.263Z,99832.41
2019-02-15T14:53:58.539Z,99828.32
2019-02-15T14:56:29.179Z,99818.63
2019-02-15T14:59:00.014Z,99819.23
2019-02-15T15:01:30.254Z,99819.23
2019-02-15T15:04:01.173Z,99812.65
2019-02-15T15:06:31.457Z,99813.75
2019-02-15T15:09:01.814Z,99800.64
2019-02-15T15:11:34.147Z,99804.95
2019-02-15T15:14:04.729Z,99797.95
2019-02-15T15:16:34.979Z,99807.95
2019-02-15T15:19:05.255Z,99793.50
2019-02-15T15:21:36.372Z,99793.94
2019-02-15T15:24:06.922Z,99787.92
2019-02-15T15:26:37.665Z,99789.12
2019-02-15T15:29:07.892Z,99778.66
2019-02-15T15:31:38.429Z,99775.95
2019-02-15T15:34:08.659Z,99779.89
2019-02-15T15:36:39.182Z,99772.81
2019-02-15T15:39:09.388Z,99765.52
2019-02-15T15:41:39.947Z,99762.43
2019-02-15T15:44:11.487Z,99763.92
2019-02-15T15:46:42.077Z,99764.03
2019-02-15T15:49:12.635Z,99760.11
2019-02-15T15:51:42.899Z,99762.77
2019-02-15T15:54:13.566Z,99764.05
2019-02-15T15:56:44.949Z,99762.28
2019-02-15T15:59:15.480Z,99762.38
2019-02-15T16:01:47.269Z,99756.89
2019-02-15T16:04:17.598Z,99761.17
2019-02-15T16:06:48.171Z,99762.86
2019-02-15T16:09:18.733Z,99758.53
2019-02-15T16:11:49.020Z,99758.52
2019-02-15T16:14:19.582Z,99759.72
2019-02-15T16:16:50.591Z,99766.87
2019-02-15T16:19:21.580Z,99759.97
2019-02-15T16:21:52.399Z,99763.11
2019-02-15T16:24:23.425Z,99765.84
2019-02-15T16:26:53.876Z,99766.67
2019-02-15T16:29:24.166Z,99765.05
2019-02-15T16:31:54.729Z,99761.70
2019-02-15T16:34:25.370Z,99772.44
2019-02-15T16:36:55.544Z,99774.13
2019-02-15T16:39:25.778Z,99765.20
2019-02-15T16:41:56.412Z,99768.16
2019-02-15T16:44:27.271Z,99758.38
2019-02-15T16:46:57.578Z,99768.16
2019-02-15T16:49:28.118Z,99762.30
2019-02-15T16:51:58.422Z,99770.68
2019-02-15T16:54:29.207Z,99769.01
2019-02-15T16:56:59.594Z,99764.63
2019-02-15T16:59:30.552Z,99770.25
2019-02-15T17:02:01.593Z,99771.52
2019-02-15T17:04:32.706Z,99772.52
2019-02-15T17:07:03.298Z,99780.91
2019-02-15T17:09:34.471Z,99778.00
2019-02-15T17:12:04.716Z,99781.33
2019-02-15T17:14:35.034Z,99782.82
2019-02-15T17:17:05.445Z,99781.42
2019-02-15T17:19:35.733Z,99779.67
2019-02-15T17:22:06.402Z,99777.82
2019-02-15T17:24:37.237Z,99778.87
2019-02-15T17:27:07.515Z,99785.52
2019-02-15T17:29:38.458Z,99789.13
2019-02-15T17:32:08.907Z,99790.23
2019-02-15T17:34:39.090Z,99785.98
2019-02-15T17:37:09.321Z,99793.55
2019-02-15T17:39:39.688Z,99790.80
2019-02-15T17:42:10.264Z,99787.92
2019-02-15T17:44:41.344Z,99791.14
2019-02-15T17:47:11.888Z,99791.86
2019-02-15T17:49:43.610Z,99795.70
2019-02-15T17:52:14.619Z,99787.03
2019-02-15T17:54:45.023Z,99790.95
2019-02-15T17:57:15.889Z,99790.81
2019-02-15T17:59:46.168Z,99787.52
2019-02-15T18:02:16.892Z,99781.56
2019-02-15T18:04:47.593Z,99788.77
2019-02-15T18:07:18.649Z,99788.24
2019-02-15T18:09:49.119Z,99782.81
2019-02-15T18:12:19.803Z,99786.52
2019-02-15T18:14:51.058Z,99774.69
2019-02-15T18:17:22.395Z,99780.48
2019-02-15T18:19:52.964Z,99777.89
2019-02-15T18:22:23.582Z,99777.27
2019-02-15T18:24:54.304Z,99777.83
2019-02-15T18:27:25.171Z,99773.95
2019-02-15T18:29:56.070Z,99775.41
2019-02-15T18:32:26.592Z,99779.44
2019-02-15T18:34:57.438Z,99785.04
2019-02-15T18:37:28.480Z,99778.20
2019-02-15T18:40:00.036Z,99780.56
2019-02-15T18:42:31.394Z,99787.77
2019-02-15T18:45:02.357Z,99771.72
2019-02-15T18:47:32.832Z,99777.50
2019-02-15T18:50:03.998Z,99784.54
2019-02-15T18:52:34.745Z,99775.77
2019-02-15T18:55:05.819Z,99775.06
2019-02-15T18:57:36.890Z,99775.06
2019-02-15T19:00:09.516Z,99792.42
2019-02-15T19:02:40.254Z,99788.54
2019-02-15T19:05:12.375Z,99787.05
2019-02-15T19:07:43.282Z,99782.58
2019-02-15T19:10:15.733Z,99778.86
2019-02-15T19:12:46.170Z,99776.89
2019-02-15T19:15:16.902Z,99781.57
2019-02-15T19:17:47.785Z,99783.59
2019-02-15T19:20:20.805Z,99780.03
2019-02-15T19:22:51.477Z,99778.18
2019-02-15T19:25:22.253Z,99781.68
2019-02-15T19:27:53.287Z,99779.55
2019-02-15T19:30:24.788Z,99782.73
2019-02-15T19:32:55.418Z,99780.52
2019-02-15T19:35:26.914Z,99777.58
2019-02-15T19:37:57.703Z,99772.31
2019-02-15T19:40:28.079Z,99766.86
2019-02-15T19:43:00.333Z,99763.05
2019-02-15T19:45:31.101Z,99766.56
2019-02-15T19:48:01.419Z,99765.14
2019-02-15T19:50:32.518Z,99766.23
2019-02-15T19:53:03.510Z,99763.19
2019-02-15T19:55:33.844Z,99764.44
2019-02-15T19:58:04.180Z,99768.15
2019-02-15T20:00:35.734Z,99766.30
2019-02-15T20:03:06.618Z,99765.42
2019-02-15T20:05:37.363Z,99763.19
2019-02-15T20:08:10.913Z,99767.24
2019-02-15T20:10:41.648Z,99768.50
2019-02-15T20:13:12.035Z,99765.85
2019-02-15T20:15:43.213Z,99767.04
2019-02-15T20:18:13.830Z,99766.52
2019-02-15T20:20:44.739Z,99764.63
2019-02-15T20:23:15.905Z,99772.07
2019-02-15T20:25:46.560Z,99769.03
2019-02-15T20:28:17.022Z,99771.16
2019-02-15T20:30:48.060Z,99763.97
2019-02-15T20:33:18.951Z,99765.57
2019-02-15T20:35:49.481Z,99765.94
2019-02-15T20:38:20.019Z,99762.70
2019-02-15T20:40:50.750Z,99762.52
2019-02-15T20:43:21.596Z,99764.08
2019-02-15T20:45:51.994Z,99765.83
2019-02-15T20:48:22.769Z,99761.41
2019-02-15T20:50:53.075Z,99762.92
2019-02-15T20:53:23.804Z,99765.14
2019-02-15T20:55:54.136Z,99768.49
2019-02-15T20:58:24.761Z,99773.81
2019-02-15T21:00:56.338Z,99767.89
2019-02-15T21:03:27.461Z,99765.05
2019-02-15T21:05:58.091Z,99770.00
2019-02-15T21:08:31.630Z,99760.74
2019-02-15T21:11:01.887Z,99760.75
2019-02-15T21:13:32.726Z,99756.61
2019-02-15T21:16:03.072Z,99755.83
2019-02-15T21:18:33.842Z,99749.30
2019-02-15T21:21:05.000Z,99750.28
2019-02-15T21:23:35.659Z,99752.97
2019-02-15T21:26:06.006Z,99755.58
2019-02-15T21:28:36.853Z,99747.89
2019-02-15T21:31:07.149Z,99748.11
2019-02-15T21:33:38.424Z,99745.53
2019-02-15T21:36:08.728Z,99751.25
2019-02-15T21:38:39.637Z,99744.28
2019-02-15T21:41:10.522Z,99744.89
2019-02-15T21:43:41.238Z,99744.72
2019-02-15T21:46:12.207Z,99741.98
2019-02-15T21:48:42.796Z,99746.43
2019-02-15T21:51:14.292Z,99742.29
2019-02-15T21:53:44.597Z,99742.64
2019-02-15T21:56:14.904Z,99748.09
2019-02-15T21:58:45.251Z,99751.66
2019-02-15T22:01:15.879Z,99744.80
2019-02-15T22:03:47.053Z,99744.80
2019-02-15T22:06:17.524Z,99751.75
2019-02-15T22:08:48.583Z,99749.53
2019-02-15T22:11:19.438Z,99751.25
2019-02-15T22:13:50.356Z,99751.25
2019-02-15T22:16:21.630Z,99755.92
2019-02-15T22:18:52.154Z,99758.13
2019-02-15T22:21:23.288Z,99755.06
2019-02-15T22:23:53.936Z,99755.33
2019-02-15T22:26:24.258Z,99758.04
2019-02-15T22:28:57.314Z,99755.09
2019-02-15T22:31:27.564Z,99763.14
2019-02-15T22:33:58.164Z,99764.07
2019-02-15T22:36:28.676Z,99760.09
2019-02-15T22:38:59.278Z,99755.26
2019-02-15T22:41:29.879Z,99761.64
2019-02-15T22:44:00.149Z,99755.41
2019-02-15T22:46:31.102Z,99752.37
2019-02-15T22:49:02.373Z,99746.23
2019-02-15T22:51:32.712Z,99740.62
2019-02-15T22:54:03.466Z,99744.58
2019-02-15T22:56:34.060Z,99747.55
2019-02-15T22:59:04.858Z,99744.25
2019-02-15T23:01:36.620Z,99745.45
2019-02-15T23:04:07.219Z,99745.67
2019-02-15T23:06:38.359Z,99740.70
2019-02-15T23:09:20.463Z,99740.42
2019-02-15T23:11:50.914Z,99748.91
2019-02-15T23:14:22.195Z,99743.41
2019-02-15T23:16:53.420Z,99743.41
2019-02-15T23:19:24.674Z,99739.34
2019-02-15T23:21:55.564Z,99751.23
2019-02-15T23:24:25.855Z,99745.88
2019-02-15T23:26:56.619Z,99746.53
2019-02-15T23:29:27.665Z,99744.20
2019-02-15T23:31:58.302Z,99737.11
2019-02-15T23:34:28.940Z,99742.52
2019-02-15T23:36:59.253Z,99740.47
2019-02-15T23:39:29.515Z,99732.62
2019-02-15T23:42:00.420Z,99736.03
2019-02-15T23:44:31.351Z,99727.13
2019-02-15T23:47:01.573Z,99730.91
2019-02-15T23:49:32.175Z,99727.44
2019-02-15T23:52:02.430Z,99732.56
2019-02-15T23:54:32.694Z,99734.54
2019-02-15T23:57:03.676Z,99734.30
2019-02-15T23:59:34.705Z,99734.87
